Time;durP1;ratioP1;P1;durP2;ratioP2;P2;SDS_P1;SDS_P2;PMS_P1;PMS_P2;Temp;Humidity;BMP_temperature;BMP_pressure;BME280_temperature;BME280_humidity;BME280_pressure;Samples;Min_cycle;Max_cycle;Signal;HPM_P1;HPM_P2
2023/12/14 00:01:15;;;;;;;20.20;12.15;;;6.30;99.90;;;;;;5069735;28;20038;-84
2023/12/14 00:03:43;;;;;;;20.45;11.18;;;6.30;99.90;;;;;;5068555;28;20070;-85
2023/12/14 00:06:11;;;;;;;19.00;12.07;;;6.20;99.90;;;;;;5065644;28;20442;-91
2023/12/14 00:08:37;;;;;;;21.10;12.55;;;6.20;99.90;;;;;;5070757;28;20067;-84
2023/12/14 00:11:10;;;;;;;20.45;12.60;;;6.20;99.90;;;;;;5078928;28;20059;-84
2023/12/14 00:13:36;;;;;;;17.77;11.80;;;6.20;99.90;;;;;;5076580;28;20436;-85
2023/12/14 00:16:03;;;;;;;24.45;13.77;;;6.20;99.90;;;;;;5071930;28;20020;-85
2023/12/14 00:18:29;;;;;;;19.67;12.40;;;6.20;99.90;;;;;;5064553;28;20320;-84
2023/12/14 00:20:55;;;;;;;22.00;13.35;;;6.20;99.90;;;;;;5072387;28;20020;-85
2023/12/14 00:23:21;;;;;;;23.13;13.98;;;6.20;99.90;;;;;;5069121;28;20477;-89
2023/12/14 00:25:47;;;;;;;23.45;14.65;;;6.20;99.90;;;;;;5063110;28;20252;-86
2023/12/14 00:28:12;;;;;;;29.17;17.02;;;6.20;99.90;;;;;;5077413;28;20081;-84
2023/12/14 00:30:39;;;;;;;25.90;15.55;;;6.20;99.90;;;;;;5073914;28;20465;-84
2023/12/14 00:33:06;;;;;;;25.00;15.23;;;6.20;99.90;;;;;;5068218;28;20037;-91
2023/12/14 00:35:31;;;;;;;27.05;15.43;;;6.10;99.90;;;;;;5073590;28;20024;-84
2023/12/14 00:37:57;;;;;;;28.42;16.08;;;6.10;99.90;;;;;;5069460;28;20108;-85
2023/12/14 00:40:22;;;;;;;27.15;15.52;;;6.10;99.90;;;;;;5062491;28;20237;-83
2023/12/14 00:42:48;;;;;;;27.90;17.35;;;6.10;99.90;;;;;;5062343;28;20036;-86
2023/12/14 00:45:13;;;;;;;26.45;17.35;;;6.10;99.90;;;;;;5066942;28;20032;-85
2023/12/14 00:47:39;;;;;;;26.77;16.75;;;6.10;99.90;;;;;;5075226;28;20323;-86
2023/12/14 00:50:05;;;;;;;26.42;17.55;;;6.00;99.90;;;;;;5073722;28;20039;-86
2023/12/14 00:52:30;;;;;;;29.08;16.85;;;6.00;99.90;;;;;;5076752;28;20069;-84
2023/12/14 00:54:56;;;;;;;26.75;15.05;;;6.00;99.90;;;;;;5061696;28;20051;-85
2023/12/14 00:57:22;;;;;;;23.00;15.00;;;5.90;99.90;;;;;;5059409;28;20032;-84
2023/12/14 00:59:47;;;;;;;23.90;14.88;;;6.00;99.90;;;;;;5067140;28;20449;-84
2023/12/14 01:02:13;;;;;;;21.58;13.43;;;5.90;99.90;;;;;;5079688;28;20403;-85
2023/12/14 01:04:39;;;;;;;20.88;13.35;;;5.90;99.90;;;;;;5074963;28;20156;-85
2023/12/14 01:07:04;;;;;;;25.67;15.60;;;5.90;99.90;;;;;;5066699;28;20049;-84
2023/12/14 01:09:30;;;;;;;22.33;14.63;;;5.80;99.90;;;;;;5075384;28;20027;-87
2023/12/14 01:11:56;;;;;;;24.65;14.82;;;5.80;99.90;;;;;;5065951;28;20153;-85
2023/12/14 01:14:21;;;;;;;20.45;13.00;;;5.80;99.90;;;;;;5071899;28;20024;-84
2023/12/14 01:16:47;;;;;;;18.50;11.95;;;5.80;99.90;;;;;;5069132;28;20489;-83
2023/12/14 01:19:13;;;;;;;23.13;13.90;;;5.80;99.90;;;;;;5062900;28;20183;-85
2023/12/14 01:21:38;;;;;;;23.27;13.70;;;5.80;99.90;;;;;;5080415;28;20035;-83
2023/12/14 01:24:04;;;;;;;20.52;12.98;;;5.80;99.90;;;;;;5074518;28;20457;-86
2023/12/14 01:26:30;;;;;;;24.17;14.23;;;5.80;99.90;;;;;;5071547;28;20034;-83
2023/12/14 01:28:55;;;;;;;50.05;14.38;;;5.80;99.90;;;;;;5070775;28;20032;-84
2023/12/14 01:31:23;;;;;;;25.23;15.23;;;5.80;99.90;;;;;;5082222;28;20028;-84
2023/12/14 01:33:49;;;;;;;22.90;13.57;;;5.80;99.90;;;;;;5084911;28;20036;-83
2023/12/14 01:36:22;;;;;;;19.92;13.15;;;5.70;99.90;;;;;;5085688;28;20124;-84
2023/12/14 01:38:48;;;;;;;17.13;11.35;;;5.70;99.90;;;;;;5076964;28;20471;-86
2023/12/14 01:41:13;;;;;;;19.90;12.55;;;5.70;99.90;;;;;;5076078;28;20023;-83
2023/12/14 01:43:39;;;;;;;20.90;12.77;;;5.70;99.90;;;;;;5079972;28;20645;-85
2023/12/14 01:46:05;;;;;;;19.20;11.00;;;5.70;99.90;;;;;;5073902;28;20448;-87
2023/12/14 01:48:30;;;;;;;15.10;10.18;;;5.70;99.90;;;;;;5074787;28;20059;-88
2023/12/14 01:50:56;;;;;;;15.32;9.52;;;5.70;99.90;;;;;;5074355;28;20374;-84
2023/12/14 01:53:22;;;;;;;15.13;10.43;;;5.60;99.90;;;;;;5075075;28;20055;-87
2023/12/14 01:55:47;;;;;;;15.35;10.02;;;5.60;99.90;;;;;;5080804;28;20024;-88
2023/12/14 01:58:13;;;;;;;15.82;10.85;;;5.70;99.90;;;;;;5075324;28;20024;-84
2023/12/14 02:00:46;;;;;;;16.38;10.02;;;5.60;99.90;;;;;;5082722;28;20030;-91
2023/12/14 02:03:11;;;;;;;17.08;10.18;;;5.70;99.90;;;;;;5075565;28;20040;-83
2023/12/14 02:05:37;;;;;;;15.68;9.52;;;5.70;99.90;;;;;;5071534;28;20302;-83
2023/12/14 02:08:03;;;;;;;23.27;9.40;;;5.60;99.90;;;;;;5078609;28;20088;-86
2023/12/14 02:10:28;;;;;;;14.13;8.82;;;5.60;99.90;;;;;;5072626;28;20115;-86
2023/12/14 02:12:54;;;;;;;9.38;7.03;;;5.60;99.90;;;;;;5075126;28;20012;-84
2023/12/14 02:15:20;;;;;;;13.70;7.82;;;5.60;99.90;;;;;;5075365;28;20024;-93
2023/12/14 02:17:46;;;;;;;11.65;7.40;;;5.50;99.90;;;;;;5063237;28;20052;-82
2023/12/14 02:20:11;;;;;;;10.50;7.53;;;5.50;99.90;;;;;;5067535;28;20233;-85
2023/12/14 02:22:53;;;;;;;10.07;7.50;;;5.50;99.90;;;;;;5067336;28;20178;-84
2023/12/14 02:25:20;;;;;;;7.45;6.00;;;5.40;99.90;;;;;;5070617;28;20028;-87
2023/12/14 02:27:47;;;;;;;8.55;6.28;;;5.40;99.90;;;;;;5066722;28;20039;-90
2023/12/14 02:30:13;;;;;;;10.52;6.90;;;5.40;99.90;;;;;;5071613;28;20032;-83
2023/12/14 02:32:39;;;;;;;8.55;6.25;;;5.40;99.90;;;;;;5070166;28;20036;-83
2023/12/14 02:35:08;;;;;;;7.25;5.88;;;5.40;99.90;;;;;;5063806;28;20567;-84
2023/12/14 02:37:37;;;;;;;9.15;6.75;;;5.30;99.90;;;;;;5071554;28;20249;-85
2023/12/14 02:40:04;;;;;;;9.68;7.53;;;5.30;99.90;;;;;;5068140;28;20031;-84
2023/12/14 02:42:30;;;;;;;14.30;8.23;;;5.30;99.90;;;;;;5063387;28;20029;-85
2023/12/14 02:44:56;;;;;;;10.35;7.47;;;5.30;99.90;;;;;;5072502;28;20024;-84
2023/12/14 02:47:22;;;;;;;7.47;6.38;;;5.30;99.90;;;;;;5070313;28;20118;-85
2023/12/14 02:49:48;;;;;;;10.50;7.18;;;5.30;99.90;;;;;;5066456;28;20119;-90
2023/12/14 02:52:13;;;;;;;7.68;6.28;;;5.30;99.90;;;;;;5074447;28;20484;-83
2023/12/14 02:54:39;;;;;;;7.57;5.75;;;5.20;99.90;;;;;;5070669;28;20081;-87
2023/12/14 02:57:07;;;;;;;9.77;6.95;;;5.20;99.90;;;;;;5073727;28;20028;-84
2023/12/14 02:59:33;;;;;;;12.48;7.93;;;5.10;99.90;;;;;;5074831;28;20078;-87
2023/12/14 03:02:00;;;;;;;10.35;7.18;;;5.10;99.90;;;;;;5060007;28;20503;-84
2023/12/14 03:04:26;;;;;;;9.85;7.03;;;5.10;99.90;;;;;;5069953;28;20039;-85
2023/12/14 03:06:53;;;;;;;8.77;6.35;;;5.20;99.90;;;;;;5067671;28;20052;-85
2023/12/14 03:09:19;;;;;;;10.13;7.88;;;5.20;99.90;;;;;;5072906;28;20511;-85
2023/12/14 03:11:47;;;;;;;9.57;7.70;;;5.20;99.90;;;;;;5067821;28;20029;-93
2023/12/14 03:14:13;;;;;;;10.68;7.55;;;5.20;99.90;;;;;;5071584;28;20062;-83
2023/12/14 03:16:39;;;;;;;11.88;7.38;;;5.20;99.90;;;;;;5067426;28;20099;-83
2023/12/14 03:19:05;;;;;;;11.15;7.40;;;5.20;99.90;;;;;;5068309;28;20039;-84
2023/12/14 03:21:30;;;;;;;6.90;6.10;;;5.10;99.90;;;;;;5074161;28;20024;-84
2023/12/14 03:23:56;;;;;;;11.20;7.35;;;5.20;99.90;;;;;;5067389;28;20012;-83
2023/12/14 03:26:22;;;;;;;10.23;7.45;;;5.20;99.90;;;;;;5071244;28;20179;-85
2023/12/14 03:28:47;;;;;;;10.60;8.00;;;5.20;99.90;;;;;;5070752;28;20101;-84
2023/12/14 03:31:13;;;;;;;8.65;6.82;;;5.20;99.90;;;;;;5073574;28;20321;-83
2023/12/14 03:33:40;;;;;;;8.65;6.30;;;5.30;99.90;;;;;;5077255;28;20029;-83
2023/12/14 03:36:08;;;;;;;7.18;6.13;;;5.20;99.90;;;;;;5063940;28;20036;-93
2023/12/14 03:38:34;;;;;;;9.50;6.45;;;5.30;99.90;;;;;;5073043;28;20028;-89
2023/12/14 03:41:00;;;;;;;8.57;6.57;;;5.20;99.90;;;;;;5065525;28;20040;-84
2023/12/14 03:43:26;;;;;;;10.80;7.85;;;5.20;99.90;;;;;;5078282;28;20043;-86
2023/12/14 03:45:52;;;;;;;11.20;7.85;;;5.20;99.90;;;;;;5074157;28;20032;-84
2023/12/14 03:48:21;;;;;;;11.05;8.10;;;5.10;99.90;;;;;;5065367;28;20028;-84
2023/12/14 03:50:46;;;;;;;10.00;6.97;;;5.10;99.90;;;;;;5068589;28;20454;-85
2023/12/14 03:53:12;;;;;;;10.13;7.03;;;5.20;99.90;;;;;;5069652;28;20115;-84
2023/12/14 03:55:37;;;;;;;11.02;7.38;;;5.10;99.90;;;;;;5067815;28;20111;-84
2023/12/14 03:58:03;;;;;;;10.70;6.72;;;5.10;99.90;;;;;;5075427;28;20024;-87
2023/12/14 04:00:32;;;;;;;8.18;6.10;;;5.10;99.90;;;;;;5073523;28;20024;-84
2023/12/14 04:02:57;;;;;;;8.75;6.47;;;5.00;99.90;;;;;;5068977;28;20385;-85
2023/12/14 04:05:23;;;;;;;8.88;6.72;;;5.00;99.90;;;;;;5069796;28;20033;-84
2023/12/14 04:07:49;;;;;;;8.70;6.13;;;5.00;99.90;;;;;;5071903;28;20446;-87
2023/12/14 04:10:14;;;;;;;11.95;7.28;;;5.00;99.90;;;;;;5073688;28;20547;-84
2023/12/14 04:12:41;;;;;;;9.27;7.07;;;5.00;99.90;;;;;;5072137;28;20108;-93
2023/12/14 04:15:10;;;;;;;11.57;7.28;;;5.00;99.90;;;;;;5071293;28;20032;-83
2023/12/14 04:17:36;;;;;;;10.75;7.70;;;5.00;99.90;;;;;;5068363;28;20110;-84
2023/12/14 04:20:06;;;;;;;9.68;6.90;;;5.00;99.90;;;;;;5066026;28;20021;-84
2023/12/14 04:22:31;;;;;;;8.80;6.90;;;5.00;99.90;;;;;;5065257;28;20491;-84
2023/12/14 04:24:57;;;;;;;11.52;8.32;;;5.00;99.90;;;;;;5061020;28;20017;-83
2023/12/14 04:27:27;;;;;;;13.02;8.52;;;5.00;99.90;;;;;;5076065;28;20487;-85
2023/12/14 04:29:52;;;;;;;10.60;6.03;;;5.00;99.90;;;;;;5078978;28;20032;-90
2023/12/14 04:32:18;;;;;;;8.60;6.45;;;5.00;99.90;;;;;;5060610;28;20028;-86
2023/12/14 04:34:46;;;;;;;10.57;6.63;;;5.00;99.90;;;;;;5075983;28;20093;-84
2023/12/14 04:37:11;;;;;;;12.18;8.02;;;4.90;99.90;;;;;;5071842;28;20165;-82
2023/12/14 04:39:37;;;;;;;11.75;7.75;;;4.90;99.90;;;;;;5063505;28;20044;-84
2023/12/14 04:42:03;;;;;;;15.27;9.00;;;4.90;99.90;;;;;;5067236;28;20123;-83
2023/12/14 04:44:28;;;;;;;14.02;9.00;;;4.90;99.90;;;;;;5071621;28;20021;-85
2023/12/14 04:46:54;;;;;;;14.07;8.50;;;4.90;99.90;;;;;;5076073;28;20042;-86
2023/12/14 04:49:20;;;;;;;14.75;8.93;;;4.80;99.90;;;;;;5071833;28;20033;-85
2023/12/14 04:51:45;;;;;;;10.35;7.45;;;4.80;99.90;;;;;;5069520;28;20056;-83
2023/12/14 04:54:11;;;;;;;12.88;8.38;;;4.70;99.90;;;;;;5073555;28;20074;-84
2023/12/14 04:56:37;;;;;;;13.77;9.30;;;4.70;99.90;;;;;;5072614;28;20033;-84
2023/12/14 04:59:05;;;;;;;13.35;8.02;;;4.70;99.90;;;;;;5068833;28;20067;-85
2023/12/14 05:01:30;;;;;;;11.93;8.30;;;4.70;99.90;;;;;;5068526;28;20479;-95
2023/12/14 05:03:56;;;;;;;13.80;9.38;;;4.70;99.90;;;;;;5070946;28;20029;-95
2023/12/14 05:06:22;;;;;;;12.20;7.47;;;4.60;99.90;;;;;;5074558;28;20489;-85
2023/12/14 05:08:48;;;;;;;12.82;8.55;;;4.60;99.90;;;;;;5075628;28;20032;-87
2023/12/14 05:11:16;;;;;;;17.38;8.32;;;4.60;99.90;;;;;;5074153;28;20580;-85
2023/12/14 05:13:42;;;;;;;10.98;7.72;;;4.60;99.90;;;;;;5068262;28;20477;-83
2023/12/14 05:16:16;;;;;;;11.85;8.43;;;4.50;99.90;;;;;;5072935;28;20031;-83
2023/12/14 05:18:42;;;;;;;10.82;7.43;;;4.50;99.90;;;;;;5075464;28;20052;-84
2023/12/14 05:21:18;;;;;;;11.80;8.20;;;4.50;99.90;;;;;;5067075;28;20509;-85
2023/12/14 05:23:44;;;;;;;17.55;8.70;;;4.50;99.90;;;;;;5064627;28;20022;-85
2023/12/14 05:26:09;;;;;;;13.85;8.27;;;4.50;99.90;;;;;;5074110;28;20040;-82
2023/12/14 05:28:35;;;;;;;14.15;8.77;;;4.40;99.90;;;;;;5076602;28;20071;-86
2023/12/14 05:31:02;;;;;;;14.65;8.95;;;4.40;99.90;;;;;;5077667;28;20106;-92
2023/12/14 05:33:28;;;;;;;14.13;9.30;;;4.40;99.90;;;;;;5071633;28;20032;-86
2023/12/14 05:35:54;;;;;;;10.90;7.30;;;4.40;99.90;;;;;;5067939;28;20029;-92
2023/12/14 05:38:19;;;;;;;12.05;8.45;;;4.30;99.90;;;;;;5077647;28;20032;-85
2023/12/14 05:40:51;;;;;;;12.05;8.07;;;4.30;99.90;;;;;;5071154;28;20024;-94
2023/12/14 05:43:17;;;;;;;13.90;8.60;;;4.30;99.90;;;;;;5072846;28;20657;-84
2023/12/14 05:45:44;;;;;;;12.00;8.25;;;4.30;99.90;;;;;;5068495;28;20051;-84
2023/12/14 05:48:10;;;;;;;12.10;7.32;;;4.40;99.90;;;;;;5057633;28;20043;-84
2023/12/14 05:50:35;;;;;;;11.00;7.25;;;4.30;99.90;;;;;;5068688;28;20029;-86
2023/12/14 05:53:01;;;;;;;10.05;6.72;;;4.30;99.90;;;;;;5071665;28;20101;-86
2023/12/14 05:55:33;;;;;;;11.73;7.70;;;4.30;99.90;;;;;;5068853;28;20021;-95
2023/12/14 05:57:58;;;;;;;14.15;9.15;;;4.30;99.90;;;;;;5074548;28;20059;-82
2023/12/14 06:00:27;;;;;;;13.30;8.40;;;4.30;99.90;;;;;;5073265;28;20390;-84
2023/12/14 06:03:02;;;;;;;11.00;7.70;;;4.30;99.90;;;;;;5074926;28;20024;-95
2023/12/14 06:05:27;;;;;;;10.82;6.88;;;4.30;99.90;;;;;;5072635;28;20233;-89
2023/12/14 06:07:56;;;;;;;12.90;7.47;;;4.30;99.90;;;;;;5073690;28;20115;-95
2023/12/14 06:10:33;;;;;;;14.60;7.25;;;4.30;99.90;;;;;;5069538;28;20451;-93
2023/12/14 06:13:02;;;;;;;10.23;7.85;;;4.20;99.90;;;;;;5069822;28;20481;-83
2023/12/14 06:15:28;;;;;;;11.05;7.57;;;4.20;99.90;;;;;;5068532;28;20111;-83
2023/12/14 06:17:53;;;;;;;13.30;7.65;;;4.20;99.90;;;;;;5082766;28;20126;-84
2023/12/14 06:20:23;;;;;;;9.85;7.30;;;4.20;99.90;;;;;;5074035;28;20422;-89
2023/12/14 06:22:48;;;;;;;13.40;7.05;;;4.10;99.90;;;;;;5071735;28;20376;-86
2023/12/14 06:25:14;;;;;;;10.90;6.78;;;4.20;99.90;;;;;;5063033;28;20056;-84
2023/12/14 06:27:42;;;;;;;9.18;6.93;;;4.20;99.90;;;;;;5069844;28;20051;-86
2023/12/14 06:30:09;;;;;;;9.68;7.10;;;4.20;99.90;;;;;;5071363;28;20033;-83
2023/12/14 06:32:35;;;;;;;10.65;7.05;;;4.10;99.90;;;;;;5067209;28;20056;-87
2023/12/14 06:35:01;;;;;;;10.27;6.13;;;4.10;99.90;;;;;;5068379;28;20113;-88
2023/12/14 06:37:26;;;;;;;10.52;6.20;;;4.10;99.90;;;;;;5083354;28;20020;-84
2023/12/14 06:39:52;;;;;;;13.43;7.03;;;4.10;99.90;;;;;;5069179;28;20438;-84
2023/12/14 06:42:18;;;;;;;11.57;7.28;;;4.10;99.90;;;;;;5072449;28;20052;-87
2023/12/14 06:44:46;;;;;;;10.80;6.57;;;4.10;99.90;;;;;;5071777;28;20036;-86
2023/12/14 06:47:13;;;;;;;12.25;7.70;;;4.10;99.90;;;;;;5067104;28;20211;-83
2023/12/14 06:49:40;;;;;;;11.65;7.45;;;4.10;99.90;;;;;;5073364;28;20048;-85
2023/12/14 06:52:10;;;;;;;12.75;7.20;;;4.10;99.90;;;;;;5073749;28;20036;-93
2023/12/14 06:54:36;;;;;;;10.45;7.22;;;4.00;99.90;;;;;;5077604;28;20063;-92
2023/12/14 06:57:08;;;;;;;11.05;7.03;;;4.00;99.90;;;;;;5070962;28;20108;-83
2023/12/14 06:59:33;;;;;;;11.10;7.53;;;4.00;99.90;;;;;;5069286;28;20034;-85
2023/12/14 07:01:59;;;;;;;9.95;6.78;;;4.10;99.90;;;;;;5076091;28;20832;-83
2023/12/14 07:04:25;;;;;;;10.48;6.45;;;4.10;99.90;;;;;;5072767;28;20497;-84
2023/12/14 07:06:54;;;;;;;9.18;6.45;;;4.00;99.90;;;;;;5073335;28;21184;-84
2023/12/14 07:09:20;;;;;;;6.90;5.95;;;4.00;99.90;;;;;;5076449;28;20385;-89
2023/12/14 07:11:46;;;;;;;8.60;6.15;;;4.00;99.90;;;;;;5073837;28;20033;-83
2023/12/14 07:14:12;;;;;;;10.20;5.60;;;4.00;99.90;;;;;;5074623;28;20493;-82
2023/12/14 07:16:38;;;;;;;7.60;5.07;;;4.00;99.90;;;;;;5073968;28;20036;-83
2023/12/14 07:19:03;;;;;;;5.95;4.57;;;3.90;99.90;;;;;;5071528;28;20085;-85
2023/12/14 07:21:29;;;;;;;7.18;4.35;;;3.90;99.90;;;;;;5076902;28;20250;-83
2023/12/14 07:23:54;;;;;;;4.78;3.75;;;3.90;99.90;;;;;;5074296;28;20027;-83
2023/12/14 07:26:20;;;;;;;5.93;4.35;;;3.80;99.90;;;;;;5050752;28;20031;-85
2023/12/14 07:28:45;;;;;;;6.18;4.65;;;3.80;99.90;;;;;;5069527;28;20032;-84
2023/12/14 07:31:11;;;;;;;4.47;3.90;;;3.80;99.90;;;;;;5077159;28;20377;-83
2023/12/14 07:33:37;;;;;;;5.93;4.22;;;3.80;99.90;;;;;;5072964;28;20024;-84
2023/12/14 07:36:05;;;;;;;3.90;3.33;;;3.80;99.90;;;;;;5077428;28;20031;-86
2023/12/14 07:38:31;;;;;;;7.60;4.00;;;3.80;99.90;;;;;;5071391;28;20392;-84
2023/12/14 07:40:56;;;;;;;13.45;5.10;;;3.80;99.90;;;;;;5075785;28;20024;-84
2023/12/14 07:43:22;;;;;;;5.35;4.22;;;3.80;99.90;;;;;;5067647;28;20036;-84
2023/12/14 07:45:48;;;;;;;6.63;4.45;;;3.80;99.90;;;;;;5067303;28;20024;-85
2023/12/14 07:48:14;;;;;;;6.95;3.97;;;3.80;99.90;;;;;;5069395;28;20052;-83
2023/12/14 07:50:39;;;;;;;8.15;4.28;;;3.80;99.90;;;;;;5057002;28;20032;-84
2023/12/14 07:53:05;;;;;;;5.63;4.70;;;3.80;99.90;;;;;;5067095;28;20974;-85
2023/12/14 07:55:32;;;;;;;7.35;5.38;;;3.80;99.90;;;;;;5072447;28;20492;-84
2023/12/14 07:57:58;;;;;;;7.15;5.22;;;3.80;99.90;;;;;;5069371;28;20529;-84
2023/12/14 08:00:23;;;;;;;6.68;5.20;;;3.80;99.90;;;;;;5068617;28;20159;-85
2023/12/14 08:02:49;;;;;;;8.32;6.10;;;3.80;99.90;;;;;;5073589;28;20032;-84
2023/12/14 08:05:15;;;;;;;7.57;5.75;;;3.80;99.90;;;;;;5071007;28;20034;-82
2023/12/14 08:07:40;;;;;;;7.38;5.45;;;3.70;99.90;;;;;;5067315;28;20361;-82
2023/12/14 08:10:07;;;;;;;8.20;5.78;;;3.70;99.90;;;;;;5067286;28;20462;-84
2023/12/14 08:12:34;;;;;;;10.85;7.75;;;3.70;99.90;;;;;;5058711;28;20063;-91
